sensor_id;sensor_type;location;lat;lon;timestamp;P1;durP1;ratioP1;P2;durP2;ratioP2
4636;SDS011;2331;48.806;9.140;2022-07-06T00:01:53;3.30;;;1.80;;
4636;SDS011;2331;48.806;9.140;2022-07-06T00:04:20;2.67;;;1.70;;
4636;SDS011;2331;48.806;9.140;2022-07-06T00:06:47;4.27;;;2.00;;
4636;SDS011;2331;48.806;9.140;2022-07-06T00:09:14;3.43;;;1.90;;
4636;SDS011;2331;48.806;9.140;2022-07-06T00:11:40;6.10;;;2.50;;
4636;SDS011;2331;48.806;9.140;2022-07-06T00:14:08;3.90;;;2.10;;
4636;SDS011;2331;48.806;9.140;2022-07-06T00:16:35;4.00;;;2.00;;
4636;SDS011;2331;48.806;9.140;2022-07-06T00:19:02;3.70;;;1.90;;
4636;SDS011;2331;48.806;9.140;2022-07-06T00:21:29;3.73;;;2.10;;
4636;SDS011;2331;48.806;9.140;2022-07-06T00:23:55;3.53;;;2.10;;
4636;SDS011;2331;48.806;9.140;2022-07-06T00:26:22;4.87;;;2.10;;
4636;SDS011;2331;48.806;9.140;2022-07-06T00:28:49;4.33;;;1.87;;
4636;SDS011;2331;48.806;9.140;2022-07-06T00:31:17;3.43;;;2.17;;
4636;SDS011;2331;48.806;9.140;2022-07-06T00:33:43;4.83;;;2.50;;
4636;SDS011;2331;48.806;9.140;2022-07-06T00:36:10;3.67;;;1.93;;
4636;SDS011;2331;48.806;9.140;2022-07-06T00:38:37;4.20;;;2.37;;
4636;SDS011;2331;48.806;9.140;2022-07-06T00:41:04;3.87;;;2.00;;
4636;SDS011;2331;48.806;9.140;2022-07-06T00:43:45;4.27;;;2.20;;
4636;SDS011;2331;48.806;9.140;2022-07-06T00:46:13;4.50;;;2.50;;
4636;SDS011;2331;48.806;9.140;2022-07-06T00:48:41;3.90;;;2.10;;
4636;SDS011;2331;48.806;9.140;2022-07-06T00:51:08;4.43;;;2.20;;
4636;SDS011;2331;48.806;9.140;2022-07-06T00:53:35;3.50;;;2.10;;
4636;SDS011;2331;48.806;9.140;2022-07-06T00:56:02;5.77;;;2.70;;
4636;SDS011;2331;48.806;9.140;2022-07-06T00:58:29;4.43;;;1.93;;
4636;SDS011;2331;48.806;9.140;2022-07-06T01:00:55;4.27;;;2.30;;
4636;SDS011;2331;48.806;9.140;2022-07-06T01:03:22;3.67;;;1.90;;
4636;SDS011;2331;48.806;9.140;2022-07-06T01:05:51;3.63;;;2.10;;
4636;SDS011;2331;48.806;9.140;2022-07-06T01:08:17;4.47;;;1.87;;
4636;SDS011;2331;48.806;9.140;2022-07-06T01:10:44;4.27;;;2.10;;
4636;SDS011;2331;48.806;9.140;2022-07-06T01:13:11;4.10;;;2.57;;
4636;SDS011;2331;48.806;9.140;2022-07-06T01:15:37;4.57;;;1.97;;
4636;SDS011;2331;48.806;9.140;2022-07-06T01:18:04;4.87;;;2.50;;
4636;SDS011;2331;48.806;9.140;2022-07-06T01:20:32;3.40;;;2.13;;
4636;SDS011;2331;48.806;9.140;2022-07-06T01:22:59;3.50;;;2.33;;
4636;SDS011;2331;48.806;9.140;2022-07-06T01:25:26;3.60;;;2.10;;
4636;SDS011;2331;48.806;9.140;2022-07-06T01:27:53;5.23;;;2.17;;
4636;SDS011;2331;48.806;9.140;2022-07-06T01:30:19;4.43;;;2.00;;
4636;SDS011;2331;48.806;9.140;2022-07-06T01:32:47;3.30;;;1.90;;
4636;SDS011;2331;48.806;9.140;2022-07-06T01:35:14;4.47;;;2.40;;
4636;SDS011;2331;48.806;9.140;2022-07-06T01:37:42;7.90;;;1.93;;
4636;SDS011;2331;48.806;9.140;2022-07-06T01:40:10;3.77;;;2.00;;
4636;SDS011;2331;48.806;9.140;2022-07-06T01:42:38;3.47;;;2.10;;
4636;SDS011;2331;48.806;9.140;2022-07-06T01:45:05;3.23;;;2.07;;
4636;SDS011;2331;48.806;9.140;2022-07-06T01:47:33;4.53;;;2.20;;
4636;SDS011;2331;48.806;9.140;2022-07-06T01:50:00;3.33;;;2.00;;
4636;SDS011;2331;48.806;9.140;2022-07-06T01:52:30;4.07;;;2.50;;
4636;SDS011;2331;48.806;9.140;2022-07-06T01:54:58;3.87;;;2.43;;
4636;SDS011;2331;48.806;9.140;2022-07-06T01:57:25;3.47;;;1.90;;
4636;SDS011;2331;48.806;9.140;2022-07-06T01:59:52;2.90;;;2.00;;
4636;SDS011;2331;48.806;9.140;2022-07-06T02:02:18;4.83;;;2.20;;
4636;SDS011;2331;48.806;9.140;2022-07-06T02:04:45;5.33;;;2.57;;
4636;SDS011;2331;48.806;9.140;2022-07-06T02:07:12;3.53;;;2.00;;
4636;SDS011;2331;48.806;9.140;2022-07-06T02:09:38;4.70;;;2.20;;
4636;SDS011;2331;48.806;9.140;2022-07-06T02:12:06;4.03;;;2.20;;
4636;SDS011;2331;48.806;9.140;2022-07-06T02:14:33;5.80;;;2.20;;
4636;SDS011;2331;48.806;9.140;2022-07-06T02:17:00;5.03;;;2.50;;
4636;SDS011;2331;48.806;9.140;2022-07-06T02:19:26;4.60;;;2.33;;
4636;SDS011;2331;48.806;9.140;2022-07-06T02:21:53;4.17;;;2.10;;
4636;SDS011;2331;48.806;9.140;2022-07-06T02:24:20;3.60;;;2.00;;
4636;SDS011;2331;48.806;9.140;2022-07-06T02:26:47;5.40;;;2.20;;
4636;SDS011;2331;48.806;9.140;2022-07-06T02:29:15;4.00;;;2.20;;
4636;SDS011;2331;48.806;9.140;2022-07-06T02:31:41;4.50;;;2.43;;
4636;SDS011;2331;48.806;9.140;2022-07-06T02:34:08;4.50;;;1.93;;
4636;SDS011;2331;48.806;9.140;2022-07-06T02:36:35;9.03;;;2.10;;
4636;SDS011;2331;48.806;9.140;2022-07-06T02:39:01;6.33;;;2.57;;
4636;SDS011;2331;48.806;9.140;2022-07-06T02:41:28;3.90;;;2.10;;
4636;SDS011;2331;48.806;9.140;2022-07-06T02:43:55;9.93;;;2.30;;
4636;SDS011;2331;48.806;9.140;2022-07-06T02:46:23;4.77;;;2.37;;
4636;SDS011;2331;48.806;9.140;2022-07-06T02:48:50;4.40;;;2.80;;
4636;SDS011;2331;48.806;9.140;2022-07-06T02:51:16;5.53;;;2.00;;
4636;SDS011;2331;48.806;9.140;2022-07-06T02:53:43;5.50;;;3.17;;
4636;SDS011;2331;48.806;9.140;2022-07-06T02:56:10;6.10;;;2.03;;
4636;SDS011;2331;48.806;9.140;2022-07-06T02:58:36;4.97;;;2.23;;
4636;SDS011;2331;48.806;9.140;2022-07-06T03:01:03;4.20;;;2.00;;
4636;SDS011;2331;48.806;9.140;2022-07-06T03:03:31;4.93;;;2.47;;
4636;SDS011;2331;48.806;9.140;2022-07-06T03:05:58;4.90;;;2.30;;
4636;SDS011;2331;48.806;9.140;2022-07-06T03:08:25;4.70;;;2.50;;
4636;SDS011;2331;48.806;9.140;2022-07-06T03:10:52;6.37;;;2.50;;
4636;SDS011;2331;48.806;9.140;2022-07-06T03:13:18;4.37;;;2.40;;
4636;SDS011;2331;48.806;9.140;2022-07-06T03:15:45;4.03;;;2.40;;
4636;SDS011;2331;48.806;9.140;2022-07-06T03:18:12;4.20;;;2.50;;
4636;SDS011;2331;48.806;9.140;2022-07-06T03:20:40;4.43;;;2.80;;
4636;SDS011;2331;48.806;9.140;2022-07-06T03:23:06;4.30;;;2.57;;
4636;SDS011;2331;48.806;9.140;2022-07-06T03:25:33;4.90;;;2.60;;
4636;SDS011;2331;48.806;9.140;2022-07-06T03:28:00;4.20;;;2.50;;
4636;SDS011;2331;48.806;9.140;2022-07-06T03:30:26;3.50;;;2.57;;
4636;SDS011;2331;48.806;9.140;2022-07-06T03:32:53;3.80;;;2.40;;
4636;SDS011;2331;48.806;9.140;2022-07-06T03:35:20;8.00;;;3.17;;
4636;SDS011;2331;48.806;9.140;2022-07-06T03:37:48;4.93;;;2.60;;
4636;SDS011;2331;48.806;9.140;2022-07-06T03:40:14;10.63;;;2.73;;
4636;SDS011;2331;48.806;9.140;2022-07-06T03:42:41;5.00;;;2.67;;
4636;SDS011;2331;48.806;9.140;2022-07-06T03:45:08;4.40;;;2.53;;
4636;SDS011;2331;48.806;9.140;2022-07-06T03:47:36;3.20;;;2.40;;
4636;SDS011;2331;48.806;9.140;2022-07-06T03:50:03;4.63;;;2.23;;
4636;SDS011;2331;48.806;9.140;2022-07-06T03:52:30;4.57;;;2.93;;
4636;SDS011;2331;48.806;9.140;2022-07-06T03:54:58;7.67;;;2.67;;
4636;SDS011;2331;48.806;9.140;2022-07-06T03:57:25;5.53;;;3.00;;
4636;SDS011;2331;48.806;9.140;2022-07-06T03:59:51;3.70;;;2.53;;
4636;SDS011;2331;48.806;9.140;2022-07-06T04:02:18;5.17;;;2.83;;
4636;SDS011;2331;48.806;9.140;2022-07-06T04:04:44;10.27;;;3.60;;
4636;SDS011;2331;48.806;9.140;2022-07-06T04:07:11;7.00;;;3.20;;
4636;SDS011;2331;48.806;9.140;2022-07-06T04:09:38;3.60;;;3.00;;
4636;SDS011;2331;48.806;9.140;2022-07-06T04:12:07;4.73;;;3.10;;
4636;SDS011;2331;48.806;9.140;2022-07-06T04:14:33;5.83;;;3.10;;
4636;SDS011;2331;48.806;9.140;2022-07-06T04:17:01;5.93;;;3.10;;
4636;SDS011;2331;48.806;9.140;2022-07-06T04:19:48;3.90;;;3.33;;
4636;SDS011;2331;48.806;9.140;2022-07-06T04:22:15;4.30;;;3.30;;
4636;SDS011;2331;48.806;9.140;2022-07-06T04:24:42;4.53;;;2.90;;
4636;SDS011;2331;48.806;9.140;2022-07-06T04:27:10;4.00;;;3.07;;
4636;SDS011;2331;48.806;9.140;2022-07-06T04:29:36;10.00;;;3.97;;
4636;SDS011;2331;48.806;9.140;2022-07-06T04:32:03;5.55;;;3.28;;
4636;SDS011;2331;48.806;9.140;2022-07-06T04:34:30;8.43;;;3.23;;
4636;SDS011;2331;48.806;9.140;2022-07-06T04:36:57;5.30;;;3.30;;
4636;SDS011;2331;48.806;9.140;2022-07-06T04:39:24;5.30;;;3.33;;
4636;SDS011;2331;48.806;9.140;2022-07-06T04:41:50;6.03;;;3.20;;
4636;SDS011;2331;48.806;9.140;2022-07-06T04:44:18;6.03;;;3.90;;
4636;SDS011;2331;48.806;9.140;2022-07-06T04:46:45;6.70;;;3.83;;
4636;SDS011;2331;48.806;9.140;2022-07-06T04:49:12;4.13;;;3.13;;
4636;SDS011;2331;48.806;9.140;2022-07-06T04:51:39;4.72;;;3.08;;
4636;SDS011;2331;48.806;9.140;2022-07-06T04:54:05;4.22;;;3.47;;
4636;SDS011;2331;48.806;9.140;2022-07-06T04:56:32;5.50;;;3.60;;
4636;SDS011;2331;48.806;9.140;2022-07-06T04:58:59;9.00;;;4.27;;
4636;SDS011;2331;48.806;9.140;2022-07-06T05:01:27;6.43;;;3.30;;
4636;SDS011;2331;48.806;9.140;2022-07-06T05:03:53;5.57;;;3.75;;
4636;SDS011;2331;48.806;9.140;2022-07-06T05:06:20;6.25;;;3.80;;
4636;SDS011;2331;48.806;9.140;2022-07-06T05:08:47;10.25;;;3.75;;
4636;SDS011;2331;48.806;9.140;2022-07-06T05:11:14;5.90;;;3.60;;
4636;SDS011;2331;48.806;9.140;2022-07-06T05:13:41;9.00;;;3.57;;
4636;SDS011;2331;48.806;9.140;2022-07-06T05:16:08;6.47;;;3.90;;
4636;SDS011;2331;48.806;9.140;2022-07-06T05:18:36;7.28;;;3.30;;
4636;SDS011;2331;48.806;9.140;2022-07-06T05:21:03;8.37;;;3.50;;
4636;SDS011;2331;48.806;9.140;2022-07-06T05:23:29;5.45;;;3.55;;
4636;SDS011;2331;48.806;9.140;2022-07-06T05:25:56;4.65;;;3.10;;
4636;SDS011;2331;48.806;9.140;2022-07-06T05:28:23;6.50;;;3.75;;
4636;SDS011;2331;48.806;9.140;2022-07-06T05:30:49;5.00;;;3.40;;
4636;SDS011;2331;48.806;9.140;2022-07-06T05:33:16;6.70;;;4.25;;
4636;SDS011;2331;48.806;9.140;2022-07-06T05:35:44;15.53;;;3.90;;
4636;SDS011;2331;48.806;9.140;2022-07-06T05:38:11;6.45;;;3.55;;
4636;SDS011;2331;48.806;9.140;2022-07-06T05:40:37;5.57;;;3.65;;
4636;SDS011;2331;48.806;9.140;2022-07-06T05:43:04;5.90;;;3.40;;
4636;SDS011;2331;48.806;9.140;2022-07-06T05:45:31;5.32;;;3.50;;
4636;SDS011;2331;48.806;9.140;2022-07-06T05:47:58;5.75;;;3.25;;
4636;SDS011;2331;48.806;9.140;2022-07-06T05:50:42;5.23;;;3.10;;
4636;SDS011;2331;48.806;9.140;2022-07-06T05:53:10;10.30;;;3.20;;
4636;SDS011;2331;48.806;9.140;2022-07-06T05:55:37;6.75;;;3.70;;
4636;SDS011;2331;48.806;9.140;2022-07-06T05:58:03;6.28;;;3.58;;
4636;SDS011;2331;48.806;9.140;2022-07-06T06:00:30;9.82;;;3.38;;
4636;SDS011;2331;48.806;9.140;2022-07-06T06:02:57;4.93;;;3.70;;
4636;SDS011;2331;48.806;9.140;2022-07-06T06:05:25;7.03;;;3.30;;
4636;SDS011;2331;48.806;9.140;2022-07-06T06:07:52;5.72;;;3.10;;
4636;SDS011;2331;48.806;9.140;2022-07-06T06:10:20;8.93;;;3.63;;
4636;SDS011;2331;48.806;9.140;2022-07-06T06:12:48;4.88;;;3.15;;
4636;SDS011;2331;48.806;9.140;2022-07-06T06:15:15;4.95;;;3.38;;
4636;SDS011;2331;48.806;9.140;2022-07-06T06:17:41;6.35;;;3.10;;
4636;SDS011;2331;48.806;9.140;2022-07-06T06:20:09;4.95;;;3.40;;
4636;SDS011;2331;48.806;9.140;2022-07-06T06:22:44;9.90;;;3.33;;
4636;SDS011;2331;48.806;9.140;2022-07-06T06:25:12;6.50;;;3.35;;
4636;SDS011;2331;48.806;9.140;2022-07-06T06:27:40;12.90;;;3.93;;
4636;SDS011;2331;48.806;9.140;2022-07-06T06:30:08;5.70;;;3.30;;
4636;SDS011;2331;48.806;9.140;2022-07-06T06:32:35;4.80;;;3.40;;
4636;SDS011;2331;48.806;9.140;2022-07-06T06:35:02;4.30;;;3.40;;
4636;SDS011;2331;48.806;9.140;2022-07-06T06:37:29;3.88;;;2.80;;
4636;SDS011;2331;48.806;9.140;2022-07-06T06:39:55;6.73;;;3.17;;
4636;SDS011;2331;48.806;9.140;2022-07-06T06:42:22;6.35;;;3.40;;
4636;SDS011;2331;48.806;9.140;2022-07-06T06:44:50;4.15;;;3.50;;
4636;SDS011;2331;48.806;9.140;2022-07-06T06:47:17;6.93;;;3.10;;
4636;SDS011;2331;48.806;9.140;2022-07-06T06:49:45;8.18;;;3.53;;
4636;SDS011;2331;48.806;9.140;2022-07-06T06:52:12;6.15;;;3.63;;
4636;SDS011;2331;48.806;9.140;2022-07-06T06:54:39;5.03;;;3.33;;
4636;SDS011;2331;48.806;9.140;2022-07-06T06:57:05;3.20;;;2.40;;
4636;SDS011;2331;48.806;9.140;2022-07-06T06:59:32;6.77;;;2.90;;
4636;SDS011;2331;48.806;9.140;2022-07-06T07:02:00;4.87;;;2.97;;
4636;SDS011;2331;48.806;9.140;2022-07-06T07:04:26;5.90;;;3.07;;
4636;SDS011;2331;48.806;9.140;2022-07-06T07:06:54;5.93;;;3.03;;
4636;SDS011;2331;48.806;9.140;2022-07-06T07:09:21;7.03;;;3.23;;
4636;SDS011;2331;48.806;9.140;2022-07-06T07:11:47;5.25;;;3.00;;
4636;SDS011;2331;48.806;9.140;2022-07-06T07:14:14;3.77;;;2.60;;
4636;SDS011;2331;48.806;9.140;2022-07-06T07:16:41;5.77;;;3.13;;
4636;SDS011;2331;48.806;9.140;2022-07-06T07:19:09;5.10;;;3.00;;
4636;SDS011;2331;48.806;9.140;2022-07-06T07:21:35;4.70;;;3.23;;
4636;SDS011;2331;48.806;9.140;2022-07-06T07:24:02;9.23;;;3.90;;
4636;SDS011;2331;48.806;9.140;2022-07-06T07:26:29;6.87;;;3.13;;
4636;SDS011;2331;48.806;9.140;2022-07-06T07:28:56;4.70;;;2.70;;
4636;SDS011;2331;48.806;9.140;2022-07-06T07:31:22;6.43;;;2.80;;
4636;SDS011;2331;48.806;9.140;2022-07-06T07:33:49;5.97;;;3.00;;
4636;SDS011;2331;48.806;9.140;2022-07-06T07:36:17;3.37;;;2.63;;
4636;SDS011;2331;48.806;9.140;2022-07-06T07:38:44;7.93;;;2.53;;
4636;SDS011;2331;48.806;9.140;2022-07-06T07:41:10;4.50;;;3.17;;
4636;SDS011;2331;48.806;9.140;2022-07-06T07:43:39;5.80;;;3.20;;
4636;SDS011;2331;48.806;9.140;2022-07-06T07:46:05;4.40;;;2.67;;
4636;SDS011;2331;48.806;9.140;2022-07-06T07:48:32;6.97;;;2.93;;
4636;SDS011;2331;48.806;9.140;2022-07-06T07:50:59;8.00;;;3.50;;
4636;SDS011;2331;48.806;9.140;2022-07-06T07:53:27;7.07;;;3.47;;
4636;SDS011;2331;48.806;9.140;2022-07-06T07:55:53;6.10;;;3.37;;
4636;SDS011;2331;48.806;9.140;2022-07-06T07:58:20;5.47;;;3.23;;
4636;SDS011;2331;48.806;9.140;2022-07-06T08:00:47;5.57;;;3.40;;
4636;SDS011;2331;48.806;9.140;2022-07-06T08:03:13;6.20;;;3.20;;
4636;SDS011;2331;48.806;9.140;2022-07-06T08:05:40;6.80;;;2.70;;
4636;SDS011;2331;48.806;9.140;2022-07-06T08:08:07;8.17;;;3.10;;
4636;SDS011;2331;48.806;9.140;2022-07-06T08:10:35;5.33;;;3.07;;
4636;SDS011;2331;48.806;9.140;2022-07-06T08:13:01;6.60;;;3.60;;
4636;SDS011;2331;48.806;9.140;2022-07-06T08:15:28;7.10;;;3.77;;
4636;SDS011;2331;48.806;9.140;2022-07-06T08:17:56;5.27;;;2.77;;
4636;SDS011;2331;48.806;9.140;2022-07-06T08:20:22;6.27;;;3.53;;
4636;SDS011;2331;48.806;9.140;2022-07-06T08:22:49;9.27;;;3.70;;
4636;SDS011;2331;48.806;9.140;2022-07-06T08:25:16;8.97;;;3.70;;
4636;SDS011;2331;48.806;9.140;2022-07-06T08:27:44;7.73;;;3.40;;
4636;SDS011;2331;48.806;9.140;2022-07-06T08:30:11;4.27;;;3.00;;
4636;SDS011;2331;48.806;9.140;2022-07-06T08:32:38;7.00;;;3.20;;
4636;SDS011;2331;48.806;9.140;2022-07-06T08:35:05;8.77;;;2.90;;
4636;SDS011;2331;48.806;9.140;2022-07-06T08:37:32;7.97;;;3.70;;
4636;SDS011;2331;48.806;9.140;2022-07-06T08:39:59;9.33;;;4.73;;
4636;SDS011;2331;48.806;9.140;2022-07-06T08:42:29;5.33;;;3.10;;
4636;SDS011;2331;48.806;9.140;2022-07-06T08:45:00;4.87;;;2.47;;
4636;SDS011;2331;48.806;9.140;2022-07-06T08:47:27;6.10;;;3.33;;
4636;SDS011;2331;48.806;9.140;2022-07-06T08:49:55;5.40;;;3.13;;
4636;SDS011;2331;48.806;9.140;2022-07-06T08:52:23;6.70;;;3.20;;
4636;SDS011;2331;48.806;9.140;2022-07-06T08:54:50;8.63;;;2.87;;
4636;SDS011;2331;48.806;9.140;2022-07-06T08:57:17;5.93;;;3.53;;
4636;SDS011;2331;48.806;9.140;2022-07-06T08:59:44;5.37;;;3.30;;
4636;SDS011;2331;48.806;9.140;2022-07-06T09:02:12;8.27;;;3.33;;
4636;SDS011;2331;48.806;9.140;2022-07-06T09:04:39;7.50;;;3.30;;
4636;SDS011;2331;48.806;9.140;2022-07-06T09:07:09;7.20;;;3.33;;
4636;SDS011;2331;48.806;9.140;2022-07-06T09:09:36;7.87;;;3.30;;
4636;SDS011;2331;48.806;9.140;2022-07-06T09:12:04;6.70;;;3.13;;
4636;SDS011;2331;48.806;9.140;2022-07-06T09:14:35;6.80;;;3.33;;
4636;SDS011;2331;48.806;9.140;2022-07-06T09:17:03;6.93;;;2.80;;
4636;SDS011;2331;48.806;9.140;2022-07-06T09:19:33;3.53;;;2.33;;
4636;SDS011;2331;48.806;9.140;2022-07-06T09:22:00;5.47;;;3.10;;
4636;SDS011;2331;48.806;9.140;2022-07-06T09:24:28;5.53;;;3.40;;
4636;SDS011;2331;48.806;9.140;2022-07-06T09:26:56;6.43;;;2.90;;
4636;SDS011;2331;48.806;9.140;2022-07-06T09:29:27;4.67;;;2.80;;
4636;SDS011;2331;48.806;9.140;2022-07-06T09:31:55;4.77;;;2.70;;
4636;SDS011;2331;48.806;9.140;2022-07-06T09:34:23;8.53;;;3.70;;
4636;SDS011;2331;48.806;9.140;2022-07-06T09:36:53;5.90;;;3.27;;
4636;SDS011;2331;48.806;9.140;2022-07-06T09:39:21;4.97;;;3.23;;
4636;SDS011;2331;48.806;9.140;2022-07-06T09:41:48;7.23;;;3.67;;
4636;SDS011;2331;48.806;9.140;2022-07-06T09:44:21;7.97;;;4.33;;
4636;SDS011;2331;48.806;9.140;2022-07-06T09:46:49;12.33;;;3.00;;
4636;SDS011;2331;48.806;9.140;2022-07-06T09:49:17;10.10;;;3.57;;
4636;SDS011;2331;48.806;9.140;2022-07-06T09:51:44;5.20;;;3.00;;
4636;SDS011;2331;48.806;9.140;2022-07-06T09:54:13;7.37;;;2.50;;
4636;SDS011;2331;48.806;9.140;2022-07-06T09:56:41;5.43;;;2.70;;
4636;SDS011;2331;48.806;9.140;2022-07-06T09:59:13;5.57;;;2.97;;
4636;SDS011;2331;48.806;9.140;2022-07-06T10:01:41;6.50;;;2.80;;
4636;SDS011;2331;48.806;9.140;2022-07-06T10:04:09;5.00;;;2.70;;
4636;SDS011;2331;48.806;9.140;2022-07-06T10:06:38;4.27;;;2.37;;
4636;SDS011;2331;48.806;9.140;2022-07-06T10:09:06;6.50;;;3.03;;
4636;SDS011;2331;48.806;9.140;2022-07-06T10:11:37;5.40;;;3.20;;
4636;SDS011;2331;48.806;9.140;2022-07-06T10:14:06;7.70;;;3.10;;
4636;SDS011;2331;48.806;9.140;2022-07-06T10:16:33;5.23;;;3.13;;
4636;SDS011;2331;48.806;9.140;2022-07-06T10:19:01;7.80;;;3.20;;
4636;SDS011;2331;48.806;9.140;2022-07-06T10:21:30;6.37;;;2.80;;
4636;SDS011;2331;48.806;9.140;2022-07-06T10:23:57;5.23;;;3.10;;
4636;SDS011;2331;48.806;9.140;2022-07-06T10:26:25;5.73;;;3.40;;
4636;SDS011;2331;48.806;9.140;2022-07-06T10:28:53;8.77;;;3.50;;
4636;SDS011;2331;48.806;9.140;2022-07-06T10:31:20;9.03;;;3.20;;
4636;SDS011;2331;48.806;9.140;2022-07-06T10:33:48;7.13;;;2.93;;
4636;SDS011;2331;48.806;9.140;2022-07-06T10:36:16;7.90;;;3.60;;
4636;SDS011;2331;48.806;9.140;2022-07-06T10:38:44;12.77;;;4.70;;
4636;SDS011;2331;48.806;9.140;2022-07-06T10:41:15;8.77;;;3.63;;
4636;SDS011;2331;48.806;9.140;2022-07-06T10:43:42;8.13;;;4.00;;
4636;SDS011;2331;48.806;9.140;2022-07-06T10:46:11;8.40;;;3.90;;
4636;SDS011;2331;48.806;9.140;2022-07-06T10:48:39;7.50;;;4.10;;
4636;SDS011;2331;48.806;9.140;2022-07-06T10:51:07;8.90;;;3.63;;
4636;SDS011;2331;48.806;9.140;2022-07-06T10:53:35;8.80;;;3.90;;
4636;SDS011;2331;48.806;9.140;2022-07-06T10:56:03;7.47;;;3.77;;
4636;SDS011;2331;48.806;9.140;2022-07-06T10:58:35;8.70;;;4.10;;
4636;SDS011;2331;48.806;9.140;2022-07-06T11:01:05;7.63;;;3.33;;
4636;SDS011;2331;48.806;9.140;2022-07-06T11:03:37;7.63;;;3.73;;
4636;SDS011;2331;48.806;9.140;2022-07-06T11:06:12;7.63;;;3.27;;
4636;SDS011;2331;48.806;9.140;2022-07-06T11:08:48;6.87;;;3.53;;
4636;SDS011;2331;48.806;9.140;2022-07-06T11:11:20;5.40;;;3.47;;
4636;SDS011;2331;48.806;9.140;2022-07-06T11:13:48;8.77;;;4.37;;
4636;SDS011;2331;48.806;9.140;2022-07-06T11:16:20;8.33;;;3.00;;
4636;SDS011;2331;48.806;9.140;2022-07-06T11:19:00;5.13;;;3.37;;
4636;SDS011;2331;48.806;9.140;2022-07-06T11:21:33;9.07;;;3.50;;
4636;SDS011;2331;48.806;9.140;2022-07-06T11:24:11;6.30;;;3.30;;
4636;SDS011;2331;48.806;9.140;2022-07-06T11:26:41;8.40;;;3.70;;
4636;SDS011;2331;48.806;9.140;2022-07-06T11:29:09;7.60;;;3.60;;
4636;SDS011;2331;48.806;9.140;2022-07-06T11:31:39;5.37;;;3.27;;
4636;SDS011;2331;48.806;9.140;2022-07-06T11:34:11;5.30;;;2.80;;
4636;SDS011;2331;48.806;9.140;2022-07-06T11:36:39;5.40;;;3.03;;
4636;SDS011;2331;48.806;9.140;2022-07-06T11:39:06;6.27;;;3.13;;
4636;SDS011;2331;48.806;9.140;2022-07-06T11:41:33;5.07;;;2.63;;
4636;SDS011;2331;48.806;9.140;2022-07-06T11:44:02;8.63;;;3.20;;
4636;SDS011;2331;48.806;9.140;2022-07-06T11:46:30;6.80;;;3.40;;
4636;SDS011;2331;48.806;9.140;2022-07-06T11:48:59;6.03;;;3.37;;
4636;SDS011;2331;48.806;9.140;2022-07-06T11:51:28;6.87;;;3.13;;
4636;SDS011;2331;48.806;9.140;2022-07-06T11:53:56;6.13;;;3.20;;
4636;SDS011;2331;48.806;9.140;2022-07-06T11:56:24;5.57;;;3.30;;
4636;SDS011;2331;48.806;9.140;2022-07-06T11:58:52;5.23;;;3.17;;
4636;SDS011;2331;48.806;9.140;2022-07-06T12:01:21;5.30;;;3.10;;
4636;SDS011;2331;48.806;9.140;2022-07-06T12:03:48;6.97;;;3.37;;
4636;SDS011;2331;48.806;9.140;2022-07-06T12:06:17;5.90;;;3.83;;
4636;SDS011;2331;48.806;9.140;2022-07-06T12:08:46;8.10;;;3.87;;
4636;SDS011;2331;48.806;9.140;2022-07-06T12:11:19;7.43;;;3.50;;
4636;SDS011;2331;48.806;9.140;2022-07-06T12:13:46;14.93;;;3.97;;
4636;SDS011;2331;48.806;9.140;2022-07-06T12:16:14;5.97;;;3.03;;
4636;SDS011;2331;48.806;9.140;2022-07-06T12:18:41;7.27;;;3.83;;
4636;SDS011;2331;48.806;9.140;2022-07-06T12:21:10;5.13;;;3.30;;
4636;SDS011;2331;48.806;9.140;2022-07-06T12:23:38;6.90;;;3.23;;
4636;SDS011;2331;48.806;9.140;2022-07-06T12:26:07;5.30;;;3.10;;
4636;SDS011;2331;48.806;9.140;2022-07-06T12:28:35;7.90;;;3.73;;
4636;SDS011;2331;48.806;9.140;2022-07-06T12:31:01;6.90;;;3.93;;
4636;SDS011;2331;48.806;9.140;2022-07-06T12:33:28;5.40;;;3.50;;
4636;SDS011;2331;48.806;9.140;2022-07-06T12:35:56;11.40;;;3.77;;
4636;SDS011;2331;48.806;9.140;2022-07-06T12:38:23;8.10;;;3.07;;
4636;SDS011;2331;48.806;9.140;2022-07-06T12:40:50;8.43;;;3.87;;
4636;SDS011;2331;48.806;9.140;2022-07-06T12:46:23;4.70;;;2.77;;
4636;SDS011;2331;48.806;9.140;2022-07-06T12:48:52;7.60;;;2.93;;
4636;SDS011;2331;48.806;9.140;2022-07-06T12:51:19;6.33;;;2.83;;
4636;SDS011;2331;48.806;9.140;2022-07-06T12:53:47;6.53;;;3.37;;
4636;SDS011;2331;48.806;9.140;2022-07-06T12:56:14;3.23;;;2.43;;
4636;SDS011;2331;48.806;9.140;2022-07-06T12:58:55;4.97;;;2.63;;
4636;SDS011;2331;48.806;9.140;2022-07-06T13:01:22;13.80;;;3.87;;
4636;SDS011;2331;48.806;9.140;2022-07-06T13:03:53;7.37;;;2.63;;
4636;SDS011;2331;48.806;9.140;2022-07-06T13:06:27;6.90;;;2.90;;
4636;SDS011;2331;48.806;9.140;2022-07-06T13:08:56;9.30;;;2.60;;
4636;SDS011;2331;48.806;9.140;2022-07-06T13:11:22;7.60;;;2.80;;
4636;SDS011;2331;48.806;9.140;2022-07-06T13:13:49;4.13;;;2.23;;
4636;SDS011;2331;48.806;9.140;2022-07-06T13:19:46;6.67;;;2.60;;
4636;SDS011;2331;48.806;9.140;2022-07-06T13:22:13;6.27;;;3.07;;
4636;SDS011;2331;48.806;9.140;2022-07-06T13:24:40;6.70;;;2.40;;
4636;SDS011;2331;48.806;9.140;2022-07-06T13:27:07;3.87;;;2.40;;
4636;SDS011;2331;48.806;9.140;2022-07-06T13:29:35;5.20;;;2.60;;
4636;SDS011;2331;48.806;9.140;2022-07-06T13:32:07;5.13;;;2.50;;
4636;SDS011;2331;48.806;9.140;2022-07-06T13:34:34;9.43;;;3.00;;
4636;SDS011;2331;48.806;9.140;2022-07-06T13:37:03;4.83;;;2.73;;
4636;SDS011;2331;48.806;9.140;2022-07-06T13:39:30;6.73;;;2.83;;
4636;SDS011;2331;48.806;9.140;2022-07-06T13:41:57;5.43;;;2.60;;
4636;SDS011;2331;48.806;9.140;2022-07-06T13:44:26;7.43;;;2.70;;
4636;SDS011;2331;48.806;9.140;2022-07-06T13:46:52;6.10;;;2.83;;
4636;SDS011;2331;48.806;9.140;2022-07-06T13:49:19;4.07;;;2.37;;
4636;SDS011;2331;48.806;9.140;2022-07-06T13:51:46;8.50;;;2.43;;
4636;SDS011;2331;48.806;9.140;2022-07-06T13:54:16;5.53;;;2.30;;
4636;SDS011;2331;48.806;9.140;2022-07-06T13:56:43;6.00;;;2.30;;
4636;SDS011;2331;48.806;9.140;2022-07-06T13:59:10;4.97;;;2.53;;
4636;SDS011;2331;48.806;9.140;2022-07-06T14:01:37;7.43;;;2.47;;
4636;SDS011;2331;48.806;9.140;2022-07-06T14:04:03;3.77;;;2.10;;
4636;SDS011;2331;48.806;9.140;2022-07-06T14:06:30;6.13;;;2.63;;
4636;SDS011;2331;48.806;9.140;2022-07-06T14:08:57;5.20;;;2.20;;
4636;SDS011;2331;48.806;9.140;2022-07-06T14:11:25;8.63;;;2.83;;
4636;SDS011;2331;48.806;9.140;2022-07-06T14:13:52;5.07;;;2.30;;
4636;SDS011;2331;48.806;9.140;2022-07-06T14:16:19;3.87;;;2.10;;
4636;SDS011;2331;48.806;9.140;2022-07-06T14:18:45;3.93;;;2.10;;
4636;SDS011;2331;48.806;9.140;2022-07-06T14:21:13;7.53;;;1.90;;
4636;SDS011;2331;48.806;9.140;2022-07-06T14:23:40;6.90;;;2.37;;
4636;SDS011;2331;48.806;9.140;2022-07-06T14:26:07;4.20;;;2.10;;
4636;SDS011;2331;48.806;9.140;2022-07-06T14:28:35;4.73;;;2.20;;
4636;SDS011;2331;48.806;9.140;2022-07-06T14:34:01;9.83;;;2.20;;
4636;SDS011;2331;48.806;9.140;2022-07-06T14:36:28;5.20;;;1.97;;
4636;SDS011;2331;48.806;9.140;2022-07-06T14:38:55;7.30;;;2.20;;
4636;SDS011;2331;48.806;9.140;2022-07-06T14:41:22;5.10;;;2.20;;
4636;SDS011;2331;48.806;9.140;2022-07-06T14:43:50;7.70;;;2.80;;
4636;SDS011;2331;48.806;9.140;2022-07-06T14:46:17;4.90;;;2.40;;
4636;SDS011;2331;48.806;9.140;2022-07-06T14:48:43;8.90;;;1.93;;
4636;SDS011;2331;48.806;9.140;2022-07-06T14:51:10;3.93;;;2.10;;
4636;SDS011;2331;48.806;9.140;2022-07-06T14:53:37;7.30;;;2.60;;
4636;SDS011;2331;48.806;9.140;2022-07-06T14:56:04;6.90;;;2.27;;
4636;SDS011;2331;48.806;9.140;2022-07-06T14:58:31;4.80;;;2.27;;
4636;SDS011;2331;48.806;9.140;2022-07-06T15:00:59;6.33;;;2.47;;
4636;SDS011;2331;48.806;9.140;2022-07-06T15:03:26;3.80;;;1.90;;
4636;SDS011;2331;48.806;9.140;2022-07-06T15:05:52;2.97;;;2.00;;
4636;SDS011;2331;48.806;9.140;2022-07-06T15:08:19;7.70;;;2.23;;
4636;SDS011;2331;48.806;9.140;2022-07-06T15:10:46;2.97;;;1.73;;
4636;SDS011;2331;48.806;9.140;2022-07-06T15:13:13;4.40;;;1.97;;
4636;SDS011;2331;48.806;9.140;2022-07-06T15:15:40;4.00;;;2.17;;
4636;SDS011;2331;48.806;9.140;2022-07-06T15:18:08;2.73;;;1.80;;
4636;SDS011;2331;48.806;9.140;2022-07-06T15:20:35;4.07;;;1.83;;
4636;SDS011;2331;48.806;9.140;2022-07-06T15:23:04;3.60;;;2.17;;
4636;SDS011;2331;48.806;9.140;2022-07-06T15:25:31;5.63;;;1.73;;
4636;SDS011;2331;48.806;9.140;2022-07-06T15:27:57;5.17;;;2.40;;